createdAt,value
2019-04-28T00:01:08.190Z,2.00
2019-04-28T00:03:37.724Z,1.60
2019-04-28T00:06:06.991Z,2.33
2019-04-28T00:08:36.633Z,1.72
2019-04-28T00:11:05.983Z,1.70
2019-04-28T00:13:35.257Z,2.25
2019-04-28T00:16:07.486Z,2.20
2019-04-28T00:18:37.135Z,1.95
2019-04-28T00:21:08.076Z,1.82
2019-04-28T00:23:47.478Z,2.10
2019-04-28T00:26:18.409Z,1.77
2019-04-28T00:28:47.698Z,1.90
2019-04-28T00:31:17.033Z,2.37
2019-04-28T00:33:46.939Z,1.72
2019-04-28T00:36:16.548Z,1.95
2019-04-28T00:38:46.155Z,2.30
2019-04-28T00:41:15.663Z,2.35
2019-04-28T00:43:45.120Z,2.15
2019-04-28T00:46:16.026Z,2.40
2019-04-28T00:48:45.315Z,2.47
2019-04-28T00:51:14.586Z,2.50
2019-04-28T00:53:44.211Z,1.92
2019-04-28T00:56:13.498Z,1.82
2019-04-28T00:58:42.775Z,1.65
2019-04-28T01:01:22.655Z,3.47
2019-04-28T01:03:52.088Z,1.90
2019-04-28T01:06:22.241Z,2.27
2019-04-28T01:08:51.736Z,1.45
2019-04-28T01:11:21.782Z,2.70
2019-04-28T01:13:51.864Z,2.17
2019-04-28T01:16:23.074Z,2.00
2019-04-28T01:19:00.363Z,2.12
2019-04-28T01:21:47.739Z,2.58
2019-04-28T01:24:17.295Z,2.05
2019-04-28T01:26:47.739Z,1.95
2019-04-28T01:29:17.327Z,1.75
2019-04-28T01:31:49.430Z,3.02
2019-04-28T01:34:32.463Z,1.90
2019-04-28T01:37:06.339Z,2.00
2019-04-28T01:39:35.838Z,2.17
2019-04-28T01:42:05.440Z,2.02
2019-04-28T01:44:34.731Z,2.40
2019-04-28T01:47:04.015Z,1.98
2019-04-28T01:49:33.300Z,2.10
2019-04-28T01:52:02.590Z,2.17
2019-04-28T01:54:31.854Z,1.90
2019-04-28T01:57:01.560Z,1.92
2019-04-28T01:59:30.991Z,2.15
2019-04-28T02:02:00.364Z,3.58
2019-04-28T02:04:32.307Z,2.08
2019-04-28T02:07:00.674Z,1.85
2019-04-28T02:09:29.970Z,2.10
2019-04-28T02:12:00.800Z,1.77
2019-04-28T02:14:30.772Z,2.10
2019-04-28T02:17:00.699Z,1.80
2019-04-28T02:19:32.692Z,2.52
2019-04-28T02:22:14.394Z,2.37
2019-04-28T02:24:43.667Z,1.80
2019-04-28T02:27:12.950Z,2.20
2019-04-28T02:29:42.219Z,2.20
2019-04-28T02:32:12.965Z,2.02
2019-04-28T02:34:42.600Z,1.98
2019-04-28T02:37:11.898Z,1.92
2019-04-28T02:39:41.439Z,1.70
2019-04-28T02:42:11.183Z,2.08
2019-04-28T02:44:40.938Z,2.05
2019-04-28T02:47:11.070Z,1.85
2019-04-28T02:49:50.204Z,1.87
2019-04-28T02:52:20.852Z,1.80
2019-04-28T02:54:50.917Z,2.60
2019-04-28T02:57:21.045Z,1.82
2019-04-28T02:59:51.064Z,2.22
2019-04-28T03:02:21.010Z,2.35
2019-04-28T03:04:50.861Z,2.83
2019-04-28T03:07:21.709Z,1.90
2019-04-28T03:09:52.205Z,2.02
2019-04-28T03:12:21.890Z,1.80
2019-04-28T03:14:51.456Z,2.00
2019-04-28T03:17:21.099Z,2.40
2019-04-28T03:19:51.614Z,2.83
2019-04-28T03:22:21.340Z,2.60
2019-04-28T03:24:52.548Z,1.60
2019-04-28T03:27:30.971Z,2.37
2019-04-28T03:30:02.472Z,1.65
2019-04-28T03:32:45.525Z,1.80
2019-04-28T03:35:04.748Z,2.00
2019-04-28T03:37:34.053Z,1.95
2019-04-28T03:40:04.632Z,1.70
2019-04-28T03:42:34.009Z,2.60
2019-04-28T03:45:04.991Z,1.62
2019-04-28T03:47:34.276Z,2.02
2019-04-28T03:50:04.926Z,1.65
2019-04-28T03:52:34.220Z,2.17
2019-04-28T03:55:04.637Z,2.00
2019-04-28T03:57:33.924Z,2.25
2019-04-28T04:00:05.153Z,2.15
2019-04-28T04:02:34.442Z,1.75
2019-04-28T04:05:05.366Z,2.40
2019-04-28T04:07:35.031Z,2.35
2019-04-28T04:10:11.169Z,2.00
2019-04-28T04:12:41.382Z,2.00
2019-04-28T04:15:12.544Z,2.72
2019-04-28T04:17:43.456Z,1.70
2019-04-28T04:20:16.072Z,2.35
2019-04-28T04:22:45.346Z,2.22
2019-04-28T04:25:14.626Z,1.47
2019-04-28T04:27:43.900Z,2.30
2019-04-28T04:30:13.188Z,2.00
2019-04-28T04:32:42.466Z,2.25
2019-04-28T04:35:11.750Z,1.62
2019-04-28T04:37:41.044Z,2.08
2019-04-28T04:40:13.099Z,1.87
2019-04-28T04:42:41.624Z,2.35
2019-04-28T04:45:10.980Z,2.55
2019-04-28T04:47:40.852Z,2.20
2019-04-28T04:50:11.347Z,2.12
2019-04-28T04:52:41.338Z,1.75
2019-04-28T04:55:11.245Z,1.72
2019-04-28T04:57:40.919Z,2.33
2019-04-28T05:00:11.978Z,1.75
2019-04-28T05:02:51.710Z,1.82
2019-04-28T05:05:19.994Z,2.40
2019-04-28T05:07:50.758Z,2.15
2019-04-28T05:10:20.462Z,1.80
2019-04-28T05:12:49.970Z,2.33
2019-04-28T05:15:20.803Z,2.12
2019-04-28T05:17:50.368Z,2.15
2019-04-28T05:20:20.130Z,2.83
2019-04-28T05:23:03.314Z,2.12
2019-04-28T05:25:43.482Z,2.55
2019-04-28T05:28:13.071Z,1.95
2019-04-28T05:30:43.146Z,2.75
2019-04-28T05:33:14.168Z,3.12
2019-04-28T05:35:43.455Z,2.90
2019-04-28T05:38:12.731Z,2.95
2019-04-28T05:40:42.022Z,3.62
2019-04-28T05:43:11.300Z,3.00
2019-04-28T05:45:40.593Z,2.98
2019-04-28T05:48:11.346Z,3.30
2019-04-28T05:50:42.614Z,3.10
2019-04-28T05:53:16.254Z,2.85
2019-04-28T05:55:53.142Z,3.00
2019-04-28T05:58:26.872Z,3.37
2019-04-28T06:01:00.748Z,3.17
2019-04-28T06:03:31.658Z,3.05
2019-04-28T06:06:00.947Z,3.37
2019-04-28T06:08:51.037Z,3.33
2019-04-28T06:11:31.246Z,3.00
2019-04-28T06:14:00.606Z,3.92
2019-04-28T06:16:30.587Z,4.28
2019-04-28T06:19:00.258Z,3.60
2019-04-28T06:21:29.922Z,2.95
2019-04-28T06:23:59.215Z,3.50
2019-04-28T06:26:28.840Z,3.72
2019-04-28T06:28:58.111Z,3.77
2019-04-28T06:31:27.391Z,3.15
2019-04-28T06:33:56.692Z,3.75
2019-04-28T06:36:26.243Z,3.25
2019-04-28T06:38:55.530Z,4.53
2019-04-28T06:41:24.798Z,4.10
2019-04-28T06:43:54.347Z,4.47
2019-04-28T06:46:23.638Z,3.72
2019-04-28T06:48:52.915Z,5.05
2019-04-28T06:51:22.454Z,3.98
2019-04-28T06:53:52.068Z,3.60
2019-04-28T06:56:21.353Z,3.55
2019-04-28T06:58:58.938Z,2.92
2019-04-28T07:01:21.610Z,3.72
2019-04-28T07:03:50.894Z,3.37
2019-04-28T07:06:20.515Z,3.20
2019-04-28T07:08:49.807Z,2.87
2019-04-28T07:11:19.076Z,4.65
2019-04-28T07:13:48.367Z,3.50
2019-04-28T07:16:17.654Z,3.42
2019-04-28T07:18:46.920Z,2.72
2019-04-28T07:21:18.075Z,3.70
2019-04-28T07:23:47.720Z,4.12
2019-04-28T07:26:17.012Z,4.20
2019-04-28T07:28:46.386Z,4.20
2019-04-28T07:31:16.474Z,5.25
2019-04-28T07:33:45.762Z,4.05
2019-04-28T07:36:15.295Z,4.75
2019-04-28T07:38:44.783Z,2.73
2019-04-28T07:41:14.061Z,3.45
2019-04-28T07:43:43.480Z,3.50
2019-04-28T07:46:12.775Z,3.80
2019-04-28T07:48:42.114Z,3.67
2019-04-28T07:51:11.616Z,3.47
2019-04-28T07:53:42.535Z,4.03
2019-04-28T07:56:11.809Z,4.92
2019-04-28T07:58:41.355Z,2.70
2019-04-28T08:01:12.508Z,2.65
2019-04-28T08:03:49.161Z,3.67
2019-04-28T08:06:12.783Z,3.15
2019-04-28T08:08:42.079Z,3.10
2019-04-28T08:11:11.350Z,2.55
2019-04-28T08:13:40.951Z,3.92
2019-04-28T08:16:10.223Z,2.72
2019-04-28T08:18:39.507Z,3.05
2019-04-28T08:21:08.780Z,2.55
2019-04-28T08:23:47.074Z,3.70
2019-04-28T08:26:09.043Z,2.47
2019-04-28T08:28:38.330Z,4.78
2019-04-28T08:31:08.994Z,2.42
2019-04-28T08:33:42.826Z,2.87
2019-04-28T08:36:12.149Z,2.55
2019-04-28T08:38:41.406Z,2.75
2019-04-28T08:41:10.703Z,3.30
2019-04-28T08:43:39.979Z,2.85
2019-04-28T08:46:09.271Z,2.92
2019-04-28T08:48:38.553Z,3.27
2019-04-28T08:51:07.855Z,2.75
2019-04-28T08:53:37.130Z,3.15
2019-04-28T08:56:06.422Z,2.45
2019-04-28T08:58:35.699Z,2.45
2019-04-28T09:01:04.990Z,2.58
2019-04-28T09:03:34.292Z,3.20
2019-04-28T09:06:03.808Z,3.10
2019-04-28T09:08:33.090Z,2.52
2019-04-28T09:11:02.670Z,2.35
2019-04-28T09:13:31.942Z,2.47
2019-04-28T09:16:01.221Z,3.12
2019-04-28T09:18:30.758Z,2.55
2019-04-28T09:21:00.407Z,1.95
2019-04-28T09:23:29.655Z,3.55
2019-04-28T09:25:58.946Z,2.72
2019-04-28T09:28:28.580Z,3.00
2019-04-28T09:30:58.183Z,2.30
2019-04-28T09:33:27.791Z,2.85
2019-04-28T09:35:57.082Z,2.52
2019-04-28T09:38:26.702Z,3.05
2019-04-28T09:40:56.046Z,2.40
2019-04-28T09:43:27.072Z,2.25
2019-04-28T09:46:01.131Z,2.15
2019-04-28T09:48:30.442Z,2.80
2019-04-28T09:50:59.814Z,2.75
2019-04-28T09:53:29.189Z,6.20
2019-04-28T09:55:59.285Z,3.10
2019-04-28T09:58:28.786Z,2.92
2019-04-28T10:00:58.046Z,2.85
2019-04-28T10:03:27.595Z,3.22
2019-04-28T10:05:56.880Z,2.27
2019-04-28T10:08:26.250Z,2.40
2019-04-28T10:10:55.574Z,2.60
2019-04-28T10:13:25.103Z,2.12
2019-04-28T10:15:54.422Z,2.60
2019-04-28T10:18:23.703Z,2.67
2019-04-28T10:20:53.311Z,2.10
2019-04-28T10:23:22.726Z,2.62
2019-04-28T10:25:52.030Z,2.42
2019-04-28T10:28:21.623Z,2.77
2019-04-28T10:30:50.916Z,3.22
2019-04-28T10:33:20.200Z,3.00
2019-04-28T10:35:49.507Z,3.60
2019-04-28T10:38:18.787Z,3.35
2019-04-28T10:40:49.726Z,3.70
2019-04-28T10:43:19.007Z,4.08
2019-04-28T10:45:49.961Z,2.87
2019-04-28T10:48:19.259Z,3.90
2019-04-28T10:50:48.534Z,2.70
2019-04-28T10:53:17.830Z,4.30
2019-04-28T10:55:47.103Z,3.35
2019-04-28T10:58:16.391Z,3.60
2019-04-28T11:00:45.666Z,3.20
2019-04-28T11:03:14.950Z,2.95
2019-04-28T11:05:45.003Z,2.95
2019-04-28T11:08:25.387Z,3.25
2019-04-28T11:10:55.008Z,3.22
2019-04-28T11:13:24.278Z,3.05
2019-04-28T11:15:53.855Z,2.90
2019-04-28T11:18:23.143Z,3.35
2019-04-28T11:20:52.435Z,2.77
2019-04-28T11:23:23.258Z,2.75
2019-04-28T11:25:52.846Z,3.00
2019-04-28T11:28:22.463Z,2.87
2019-04-28T11:30:51.730Z,2.45
2019-04-28T11:33:40.927Z,3.15
2019-04-28T11:36:10.204Z,2.70
2019-04-28T11:38:39.499Z,2.70
2019-04-28T11:41:11.526Z,3.15
2019-04-28T11:43:40.020Z,2.85
2019-04-28T11:46:10.931Z,2.92
2019-04-28T11:48:40.218Z,3.60
2019-04-28T11:51:09.816Z,2.95
2019-04-28T11:53:39.106Z,2.62
2019-04-28T11:56:08.723Z,2.52
2019-04-28T11:58:38.331Z,3.08
2019-04-28T12:01:07.890Z,2.90
2019-04-28T12:03:37.182Z,3.42
2019-04-28T12:06:06.471Z,2.30
2019-04-28T12:08:35.750Z,2.47
2019-04-28T12:11:09.371Z,2.70
2019-04-28T12:13:40.693Z,2.60
2019-04-28T12:16:23.855Z,2.60
2019-04-28T12:19:00.526Z,2.25
2019-04-28T12:21:29.803Z,2.22
2019-04-28T12:23:59.088Z,3.47
2019-04-28T12:26:28.360Z,2.47
2019-04-28T12:29:00.619Z,3.08
2019-04-28T12:31:28.934Z,2.22
2019-04-28T12:33:58.231Z,1.80
2019-04-28T12:36:27.895Z,1.70
2019-04-28T12:38:57.559Z,1.77
2019-04-28T12:41:27.067Z,2.40
2019-04-28T12:43:56.358Z,2.15
2019-04-28T12:46:25.636Z,1.75
2019-04-28T12:48:56.811Z,2.40
2019-04-28T12:51:26.105Z,2.60
2019-04-28T12:53:57.023Z,2.00
2019-04-28T12:56:26.318Z,1.80
2019-04-28T12:58:57.259Z,1.77
2019-04-28T13:01:31.251Z,1.45
2019-04-28T13:04:11.482Z,1.60
2019-04-28T13:06:40.768Z,1.90
2019-04-28T13:09:10.039Z,1.70
2019-04-28T13:11:39.719Z,1.40
2019-04-28T13:14:09.003Z,2.50
2019-04-28T13:16:38.292Z,1.90
2019-04-28T13:19:07.562Z,2.10
2019-04-28T13:21:36.845Z,2.42
2019-04-28T13:24:06.114Z,2.50
2019-04-28T13:26:35.403Z,2.75
2019-04-28T13:29:04.679Z,2.17
2019-04-28T13:31:33.971Z,2.37
2019-04-28T13:34:05.110Z,2.10
2019-04-28T13:36:34.470Z,2.02
2019-04-28T13:39:06.924Z,2.25
2019-04-28T13:41:37.495Z,1.40
2019-04-28T13:44:08.500Z,2.08
2019-04-28T13:46:37.789Z,2.80
2019-04-28T13:49:08.846Z,1.72
2019-04-28T13:51:38.096Z,1.45
2019-04-28T13:54:09.051Z,1.60
2019-04-28T13:56:38.348Z,1.45
2019-04-28T13:59:09.315Z,1.45
2019-04-28T14:01:52.677Z,1.20
2019-04-28T14:04:32.587Z,1.77
2019-04-28T14:07:01.866Z,1.70
2019-04-28T14:09:31.472Z,2.37
2019-04-28T14:12:00.758Z,1.05
2019-04-28T14:14:30.034Z,1.50
2019-04-28T14:16:59.330Z,1.65
2019-04-28T14:19:28.627Z,1.52
2019-04-28T14:21:58.175Z,2.27
2019-04-28T14:24:27.683Z,1.65
2019-04-28T14:26:56.975Z,2.25
2019-04-28T14:29:26.262Z,1.50
2019-04-28T14:31:55.789Z,1.72
2019-04-28T14:34:25.083Z,2.12
2019-04-28T14:36:54.601Z,1.85
2019-04-28T14:39:23.887Z,2.20
2019-04-28T14:41:53.412Z,2.00
2019-04-28T14:44:23.012Z,1.98
2019-04-28T14:46:52.634Z,1.85
2019-04-28T14:49:21.916Z,1.95
2019-04-28T14:51:51.195Z,1.80
2019-04-28T14:54:20.558Z,1.62
2019-04-28T14:56:49.828Z,1.55
2019-04-28T14:59:19.432Z,1.67
2019-04-28T15:02:02.656Z,1.67
2019-04-28T15:04:49.803Z,1.72
2019-04-28T15:07:37.297Z,1.60
2019-04-28T15:10:26.268Z,1.70
2019-04-28T15:12:55.999Z,1.95
2019-04-28T15:15:25.283Z,1.70
2019-04-28T15:17:54.626Z,1.80
2019-04-28T15:20:23.975Z,1.42
2019-04-28T15:22:53.296Z,1.50
2019-04-28T15:25:22.882Z,1.50
2019-04-28T15:27:52.154Z,1.80
2019-04-28T15:30:21.727Z,1.70
2019-04-28T15:32:50.994Z,1.90
2019-04-28T15:35:20.422Z,1.30
2019-04-28T15:37:50.003Z,1.80
2019-04-28T15:40:19.283Z,1.60
2019-04-28T15:42:48.566Z,1.50
2019-04-28T15:45:17.910Z,1.70
2019-04-28T15:47:47.198Z,2.30
2019-04-28T15:50:16.816Z,3.08
2019-04-28T15:52:46.170Z,1.77
2019-04-28T15:55:19.779Z,1.35
2019-04-28T15:57:49.066Z,1.40
2019-04-28T16:00:18.934Z,1.40
2019-04-28T16:02:48.231Z,1.10
2019-04-28T16:05:17.509Z,2.08
2019-04-28T16:07:46.810Z,1.20
2019-04-28T16:10:16.428Z,1.70
2019-04-28T16:12:45.992Z,1.10
2019-04-28T16:15:15.409Z,1.60
2019-04-28T16:17:44.962Z,1.15
2019-04-28T16:20:14.502Z,0.98
2019-04-28T16:22:44.072Z,1.30
2019-04-28T16:25:13.356Z,1.55
2019-04-28T16:27:42.643Z,1.20
2019-04-28T16:30:12.175Z,1.20
2019-04-28T16:32:41.788Z,1.70
2019-04-28T16:35:11.067Z,1.22
2019-04-28T16:37:40.356Z,1.30
2019-04-28T16:40:10.013Z,1.57
2019-04-28T16:42:39.354Z,1.30
2019-04-28T16:45:09.318Z,1.20
2019-04-28T16:47:38.927Z,1.40
2019-04-28T16:50:08.339Z,1.20
2019-04-28T16:52:37.935Z,1.50
2019-04-28T16:55:15.433Z,1.47
2019-04-28T16:58:02.612Z,1.12
2019-04-28T17:00:33.796Z,1.50
2019-04-28T17:03:03.098Z,1.70
2019-04-28T17:05:32.366Z,1.05
2019-04-28T17:08:01.899Z,1.05
2019-04-28T17:10:31.174Z,1.35
2019-04-28T17:13:00.454Z,1.85
2019-04-28T17:15:30.364Z,1.50
2019-04-28T17:18:00.019Z,3.20
2019-04-28T17:20:29.385Z,2.33
2019-04-28T17:22:58.946Z,2.15
2019-04-28T17:25:28.222Z,1.85
2019-04-28T17:27:57.538Z,1.77
2019-04-28T17:30:26.811Z,1.72
2019-04-28T17:32:56.120Z,1.75
2019-04-28T17:35:25.395Z,2.20
2019-04-28T17:38:06.044Z,2.10
2019-04-28T17:40:26.139Z,2.80
2019-04-28T17:42:55.437Z,1.40
2019-04-28T17:45:25.201Z,1.60
2019-04-28T17:47:56.118Z,1.20
2019-04-28T17:50:26.756Z,1.60
2019-04-28T17:52:56.027Z,1.22
2019-04-28T17:55:25.323Z,1.55
2019-04-28T17:57:54.591Z,1.65
2019-04-28T18:00:31.973Z,1.30
2019-04-28T18:03:03.235Z,1.90
2019-04-28T18:05:42.966Z,1.17
2019-04-28T18:08:20.943Z,1.20
2019-04-28T18:10:43.551Z,1.27
2019-04-28T18:13:13.015Z,1.10
2019-04-28T18:15:46.920Z,2.00
2019-04-28T18:18:23.540Z,1.22
2019-04-28T18:20:53.094Z,1.47
2019-04-28T18:23:22.463Z,1.00
2019-04-28T18:25:51.755Z,1.27
2019-04-28T18:28:21.036Z,1.42
2019-04-28T18:30:57.675Z,1.82
2019-04-28T18:33:29.202Z,1.60
2019-04-28T18:36:06.089Z,1.85
2019-04-28T18:38:37.347Z,1.80
2019-04-28T18:41:11.059Z,1.50
2019-04-28T18:43:45.039Z,1.40
2019-04-28T18:46:17.299Z,1.65
2019-04-28T18:48:46.855Z,1.52
2019-04-28T18:51:16.147Z,2.00
2019-04-28T18:53:45.448Z,1.57
2019-04-28T18:56:14.776Z,1.77
2019-04-28T18:58:44.110Z,1.57
2019-04-28T19:01:20.985Z,1.50
2019-04-28T19:03:50.273Z,1.90
2019-04-28T19:06:19.826Z,1.45
2019-04-28T19:08:57.019Z,1.90
2019-04-28T19:11:40.321Z,1.70
2019-04-28T19:14:14.387Z,1.77
2019-04-28T19:17:01.894Z,1.90
2019-04-28T19:19:32.880Z,1.85
2019-04-28T19:22:02.434Z,2.12
2019-04-28T19:24:31.727Z,2.30
2019-04-28T19:27:01.007Z,1.20
2019-04-28T19:29:30.294Z,1.20
2019-04-28T19:31:59.590Z,1.50
2019-04-28T19:34:28.882Z,1.35
2019-04-28T19:36:58.244Z,1.50
2019-04-28T19:39:27.532Z,1.17
2019-04-28T19:41:57.203Z,1.40
2019-04-28T19:44:26.508Z,1.70
2019-04-28T19:46:55.798Z,1.40
2019-04-28T19:49:25.075Z,1.72
2019-04-28T19:51:54.659Z,1.52
2019-04-28T19:54:25.591Z,1.55
2019-04-28T19:56:56.519Z,1.30
2019-04-28T19:59:27.458Z,1.20
2019-04-28T20:01:56.807Z,1.10
2019-04-28T20:04:26.101Z,1.22
2019-04-28T20:06:55.390Z,1.20
2019-04-28T20:09:24.984Z,1.30
2019-04-28T20:11:54.282Z,1.40
2019-04-28T20:14:23.566Z,1.50
2019-04-28T20:16:53.196Z,1.30
2019-04-28T20:19:22.492Z,1.20
2019-04-28T20:21:51.755Z,1.87
2019-04-28T20:24:21.046Z,1.05
2019-04-28T20:26:50.333Z,1.67
2019-04-28T20:29:19.635Z,1.20
2019-04-28T20:31:49.202Z,1.25
2019-04-28T20:34:18.467Z,1.00
2019-04-28T20:36:55.370Z,1.45
2019-04-28T20:39:26.283Z,1.40
2019-04-28T20:41:57.769Z,1.50
2019-04-28T20:44:27.051Z,1.90
2019-04-28T20:46:56.578Z,1.50
2019-04-28T20:49:25.850Z,1.82
2019-04-28T20:51:55.383Z,1.50
2019-04-28T20:54:24.660Z,0.98
2019-04-28T20:56:53.967Z,1.67
2019-04-28T20:59:23.238Z,1.20
2019-04-28T21:01:52.527Z,1.45
2019-04-28T21:04:21.798Z,1.25
2019-04-28T21:06:51.096Z,1.17
2019-04-28T21:09:20.370Z,2.05
2019-04-28T21:11:49.674Z,1.47
2019-04-28T21:14:20.750Z,1.30
2019-04-28T21:16:50.237Z,1.40
2019-04-28T21:19:19.861Z,2.85
2019-04-28T21:21:49.384Z,0.90
2019-04-28T21:24:18.656Z,1.45
2019-04-28T21:26:48.017Z,1.20
2019-04-28T21:29:17.286Z,1.40
2019-04-28T21:31:46.575Z,1.10
2019-04-28T21:34:15.862Z,1.40
2019-04-28T21:36:45.139Z,1.10
2019-04-28T21:39:14.759Z,1.15
2019-04-28T21:41:44.035Z,1.30
2019-04-28T21:44:14.968Z,1.12
2019-04-28T21:47:01.474Z,1.60
2019-04-28T21:49:32.398Z,1.20
2019-04-28T21:52:01.678Z,1.17
2019-04-28T21:54:31.460Z,1.27
2019-04-28T21:57:00.730Z,1.42
2019-04-28T21:59:30.011Z,1.45
2019-04-28T22:02:00.290Z,1.30
2019-04-28T22:04:29.883Z,1.02
2019-04-28T22:06:59.175Z,1.10
2019-04-28T22:09:28.676Z,1.10
2019-04-28T22:11:58.022Z,0.90
2019-04-28T22:14:27.602Z,0.80
2019-04-28T22:16:56.895Z,1.22
2019-04-28T22:19:26.168Z,0.95
2019-04-28T22:21:55.450Z,1.00
2019-04-28T22:24:26.359Z,0.85
2019-04-28T22:26:55.643Z,1.00
2019-04-28T22:29:24.915Z,0.93
2019-04-28T22:31:54.187Z,0.90
2019-04-28T22:34:23.450Z,0.70
2019-04-28T22:36:52.739Z,1.00
2019-04-28T22:39:22.006Z,1.50
2019-04-28T22:41:51.371Z,0.90
2019-04-28T22:44:20.946Z,1.20
2019-04-28T22:46:50.239Z,1.67
2019-04-28T22:49:19.540Z,1.50
2019-04-28T22:51:48.810Z,1.50
2019-04-28T22:54:38.021Z,1.70
2019-04-28T22:57:21.016Z,1.80
2019-04-28T22:59:51.942Z,1.80
2019-04-28T23:02:22.923Z,1.50
2019-04-28T23:04:59.211Z,1.50
2019-04-28T23:07:28.554Z,1.30
2019-04-28T23:09:57.914Z,2.10
2019-04-28T23:12:27.504Z,1.37
2019-04-28T23:14:56.771Z,1.60
2019-04-28T23:17:26.115Z,1.55
2019-04-28T23:19:55.706Z,1.60
2019-04-28T23:22:46.015Z,1.67
2019-04-28T23:25:04.328Z,1.40
2019-04-28T23:27:33.850Z,1.55
2019-04-28T23:30:03.574Z,1.40
2019-04-28T23:32:33.164Z,1.40
2019-04-28T23:35:02.810Z,1.40
2019-04-28T23:37:32.148Z,1.30
2019-04-28T23:40:01.786Z,1.75
2019-04-28T23:42:35.387Z,1.55
2019-04-28T23:45:06.194Z,1.20
2019-04-28T23:47:35.502Z,1.40
2019-04-28T23:50:08.375Z,1.40
2019-04-28T23:52:48.272Z,1.40
2019-04-28T23:55:18.530Z,1.10
2019-04-28T23:57:47.806Z,1.25
